createdAt,value
2023-03-30T00:04:20.064Z,12.68
2023-03-30T00:09:25.665Z,12.87
2023-03-30T00:14:31.456Z,13.05
2023-03-30T00:19:41.628Z,13.22
2023-03-30T00:24:46.616Z,13.42
2023-03-30T00:29:51.961Z,13.62
2023-03-30T00:34:57.381Z,13.83
2023-03-30T00:40:05.732Z,14.02
2023-03-30T00:45:18.778Z,14.25
2023-03-30T00:50:31.145Z,14.45
2023-03-30T00:55:39.917Z,14.65
2023-03-30T01:00:48.418Z,14.88
2023-03-30T01:05:56.622Z,15.11
2023-03-30T01:11:03.481Z,15.33
2023-03-30T01:16:37.024Z,15.56
2023-03-30T01:22:17.867Z,15.78
2023-03-30T01:27:55.187Z,16.06
2023-03-30T01:33:22.977Z,16.33
2023-03-30T01:38:59.319Z,16.58
2023-03-30T01:44:31.393Z,16.87
2023-03-30T01:49:51.359Z,17.12
2023-03-30T01:55:06.014Z,17.39
2023-03-30T02:00:15.658Z,17.63
2023-03-30T02:05:24.310Z,17.88
2023-03-30T02:10:36.354Z,18.12
2023-03-30T02:15:55.844Z,18.36
2023-03-30T02:21:03.495Z,18.59
2023-03-30T02:26:10.371Z,18.81
2023-03-30T02:31:17.410Z,19.03
2023-03-30T02:36:40.795Z,19.27
2023-03-30T02:42:07.221Z,19.53
2023-03-30T02:47:44.184Z,19.76
2023-03-30T02:53:07.704Z,19.99
2023-03-30T02:58:20.373Z,20.21
2023-03-30T03:03:41.443Z,20.42
2023-03-30T03:08:49.313Z,20.66
2023-03-30T03:14:00.752Z,20.87
2023-03-30T03:19:07.901Z,21.09
2023-03-30T03:24:15.034Z,21.25
2023-03-30T03:29:55.397Z,21.47
2023-03-30T03:35:00.471Z,21.70
2023-03-30T03:40:07.568Z,21.87
2023-03-30T03:45:13.667Z,22.10
2023-03-30T03:50:38.540Z,22.35
2023-03-30T03:55:43.465Z,22.50
2023-03-30T04:00:48.417Z,22.67
2023-03-30T04:05:53.779Z,22.85
2023-03-30T04:11:06.086Z,23.01
2023-03-30T04:16:21.459Z,23.23
2023-03-30T04:22:00.325Z,23.41
2023-03-30T04:27:27.143Z,23.60
2023-03-30T04:33:05.108Z,23.73
2023-03-30T04:38:34.095Z,23.87
2023-03-30T04:43:59.362Z,24.07
2023-03-30T04:49:23.004Z,24.11
2023-03-30T04:54:46.664Z,24.26
2023-03-30T05:00:28.776Z,24.47
2023-03-30T05:06:00.188Z,24.65
2023-03-30T05:11:31.098Z,24.86
2023-03-30T05:17:00.203Z,24.95
2023-03-30T05:22:18.784Z,25.12
2023-03-30T05:27:46.516Z,25.21
2023-03-30T05:33:17.612Z,25.28
2023-03-30T05:38:37.477Z,25.33
2023-03-30T05:44:06.293Z,25.45
2023-03-30T05:49:32.828Z,25.56
2023-03-30T05:55:04.402Z,25.66
2023-03-30T06:00:34.554Z,25.70
2023-03-30T06:05:48.106Z,25.82
2023-03-30T06:10:58.983Z,25.96
2023-03-30T06:16:09.189Z,26.02
2023-03-30T06:21:15.518Z,26.03
2023-03-30T06:26:36.625Z,26.17
2023-03-30T06:31:42.517Z,26.26
2023-03-30T06:37:08.284Z,26.34
2023-03-30T06:42:13.621Z,26.34
2023-03-30T06:47:37.191Z,26.39
2023-03-30T06:52:42.863Z,26.50
2023-03-30T06:57:48.617Z,26.56
2023-03-30T07:02:56.746Z,26.57
2023-03-30T07:08:15.799Z,26.63
2023-03-30T07:13:29.374Z,26.63
2023-03-30T07:18:34.723Z,26.68
2023-03-30T07:23:42.502Z,26.77
2023-03-30T07:28:54.452Z,26.86
2023-03-30T07:34:00.818Z,26.83
2023-03-30T07:39:10.582Z,26.76
2023-03-30T07:44:18.537Z,26.80
2023-03-30T07:49:24.068Z,26.93
2023-03-30T07:54:29.603Z,26.87
2023-03-30T07:59:55.839Z,26.84
2023-03-30T08:05:21.135Z,26.85
2023-03-30T08:10:38.131Z,26.78
2023-03-30T08:15:43.277Z,26.76
2023-03-30T08:20:54.601Z,26.67
2023-03-30T08:26:01.080Z,26.58
2023-03-30T08:31:12.140Z,26.41
2023-03-30T08:36:17.974Z,26.33
2023-03-30T08:41:33.206Z,26.22
2023-03-30T08:46:39.688Z,26.04
2023-03-30T08:51:45.247Z,25.86
2023-03-30T08:57:18.988Z,25.69
2023-03-30T09:02:35.603Z,25.48
2023-03-30T09:08:11.870Z,25.36
2023-03-30T09:13:20.756Z,25.19
2023-03-30T09:18:46.818Z,24.98
2023-03-30T09:23:54.124Z,24.85
2023-03-30T09:29:27.203Z,24.64
2023-03-30T09:34:43.238Z,24.42
2023-03-30T09:39:49.177Z,24.25
2023-03-30T09:45:00.007Z,24.11
2023-03-30T09:50:18.828Z,23.92
2023-03-30T09:55:23.951Z,23.79
2023-03-30T10:00:30.662Z,23.65
2023-03-30T10:05:39.681Z,23.47
2023-03-30T10:10:44.993Z,23.26
2023-03-30T10:15:55.988Z,23.05
2023-03-30T10:21:29.526Z,22.88
2023-03-30T10:26:37.676Z,22.68
2023-03-30T10:31:48.921Z,22.54
2023-03-30T10:36:55.882Z,22.41
2023-03-30T10:42:06.806Z,22.35
2023-03-30T10:47:11.673Z,22.22
2023-03-30T10:52:51.910Z,22.05
2023-03-30T10:58:29.393Z,21.97
2023-03-30T11:03:35.295Z,21.80
2023-03-30T11:08:45.928Z,21.64
2023-03-30T11:14:03.159Z,21.52
2023-03-30T11:19:25.715Z,21.37
2023-03-30T11:24:31.495Z,21.20
2023-03-30T11:30:14.091Z,21.08
2023-03-30T11:35:31.224Z,20.90
2023-03-30T11:40:45.945Z,20.74
2023-03-30T11:46:09.006Z,20.60
2023-03-30T11:51:51.182Z,20.49
2023-03-30T11:57:18.478Z,20.35
2023-03-30T12:02:41.752Z,20.19
2023-03-30T12:07:47.371Z,20.07
2023-03-30T12:12:55.288Z,19.95
2023-03-30T12:18:19.605Z,19.84
2023-03-30T12:23:33.634Z,19.72
2023-03-30T12:34:09.318Z,19.53
2023-03-30T12:39:27.937Z,19.42
2023-03-30T12:44:41.786Z,19.32
2023-03-30T12:49:59.869Z,19.23
2023-03-30T12:55:27.823Z,19.14
2023-03-30T13:00:37.573Z,19.06
2023-03-30T13:05:47.061Z,19.01
2023-03-30T13:10:53.579Z,18.91
2023-03-30T13:15:59.327Z,18.82
2023-03-30T13:21:20.915Z,18.72
2023-03-30T13:26:34.882Z,18.67
2023-03-30T13:31:50.452Z,18.60
2023-03-30T13:37:06.245Z,18.50
2023-03-30T13:42:36.147Z,18.35
2023-03-30T13:47:47.582Z,18.22
2023-03-30T13:52:57.297Z,18.11
2023-03-30T13:58:22.630Z,18.02
2023-03-30T14:03:32.093Z,17.91
2023-03-30T14:08:41.333Z,17.76
2023-03-30T14:13:47.887Z,17.70
2023-03-30T14:18:55.156Z,17.62
2023-03-30T14:24:04.978Z,17.53
2023-03-30T14:29:31.228Z,17.39
2023-03-30T14:34:38.984Z,17.27
2023-03-30T14:39:56.535Z,17.12
2023-03-30T14:45:03.689Z,17.02
2023-03-30T14:50:21.940Z,16.94
2023-03-30T14:55:31.227Z,16.82
2023-03-30T15:00:38.320Z,16.73
2023-03-30T15:05:46.995Z,16.68
2023-03-30T15:10:59.241Z,16.62
2023-03-30T15:16:07.961Z,16.58
2023-03-30T15:21:15.825Z,16.47
2023-03-30T15:26:22.551Z,16.31
2023-03-30T15:31:29.871Z,16.30
2023-03-30T15:36:43.375Z,16.22
2023-03-30T15:41:52.275Z,16.18
2023-03-30T15:47:00.444Z,16.15
2023-03-30T15:52:21.073Z,16.09
2023-03-30T15:57:31.549Z,15.99
2023-03-30T16:02:59.712Z,15.95
2023-03-30T16:08:06.883Z,15.83
2023-03-30T16:13:13.849Z,15.76
2023-03-30T16:18:22.908Z,15.67
2023-03-30T16:23:28.493Z,15.62
2023-03-30T16:28:34.218Z,15.56
2023-03-30T16:33:39.983Z,15.50
2023-03-30T16:38:46.601Z,15.50
2023-03-30T16:43:52.098Z,15.49
2023-03-30T16:48:57.498Z,15.45
2023-03-30T16:54:02.694Z,15.39
2023-03-30T16:59:13.823Z,15.30
2023-03-30T17:04:19.500Z,15.24
2023-03-30T17:09:24.831Z,15.21
2023-03-30T17:14:31.544Z,15.14
2023-03-30T17:19:36.837Z,15.10
2023-03-30T17:24:42.236Z,15.09
2023-03-30T17:29:47.610Z,15.04
2023-03-30T17:34:53.016Z,14.94
2023-03-30T17:39:58.279Z,14.87
2023-03-30T17:45:06.216Z,14.77
2023-03-30T17:50:34.516Z,14.73
2023-03-30T17:55:40.040Z,14.66
2023-03-30T18:00:48.114Z,14.63
2023-03-30T18:05:55.107Z,14.57
2023-03-30T18:11:02.176Z,14.53
2023-03-30T18:16:07.781Z,14.47
2023-03-30T18:21:13.266Z,14.41
2023-03-30T18:26:18.460Z,14.34
2023-03-30T18:31:24.453Z,14.32
2023-03-30T18:36:30.115Z,14.36
2023-03-30T18:41:35.369Z,14.31
2023-03-30T18:46:41.707Z,14.25
2023-03-30T18:51:47.030Z,14.18
2023-03-30T18:56:52.730Z,14.13
2023-03-30T19:01:58.067Z,14.05
2023-03-30T19:07:03.140Z,14.00
2023-03-30T19:12:08.858Z,13.96
2023-03-30T19:17:16.848Z,13.89
2023-03-30T19:22:22.117Z,13.84
2023-03-30T19:27:27.394Z,13.77
2023-03-30T19:32:34.586Z,13.69
2023-03-30T19:37:44.288Z,13.64
2023-03-30T19:42:50.763Z,13.57
2023-03-30T19:47:55.373Z,13.52
2023-03-30T19:53:00.882Z,13.47
2023-03-30T19:58:06.236Z,13.41
2023-03-30T20:03:14.172Z,13.38
2023-03-30T20:08:24.445Z,13.38
2023-03-30T20:13:30.056Z,13.32
2023-03-30T20:18:36.895Z,13.29
2023-03-30T20:23:42.581Z,13.20
2023-03-30T20:28:48.496Z,13.10
2023-03-30T20:33:55.071Z,13.03
2023-03-30T20:39:02.722Z,12.97
2023-03-30T20:44:12.914Z,12.85
2023-03-30T20:49:18.117Z,12.71
2023-03-30T20:54:23.413Z,12.61
2023-03-30T20:59:28.653Z,12.54
2023-03-30T21:04:37.747Z,12.47
2023-03-30T21:09:43.939Z,12.44
2023-03-30T21:14:49.392Z,12.40
2023-03-30T21:19:54.747Z,12.31
2023-03-30T21:24:59.997Z,12.25
2023-03-30T21:30:05.607Z,12.27
2023-03-30T21:35:10.531Z,12.25
2023-03-30T21:40:16.297Z,12.20
2023-03-30T21:45:22.151Z,12.18
2023-03-30T21:50:27.388Z,12.15
2023-03-30T21:55:32.624Z,12.08
2023-03-30T22:00:37.891Z,12.05
2023-03-30T22:05:44.653Z,12.01
2023-03-30T22:11:02.326Z,11.98
2023-03-30T22:16:09.120Z,11.96
2023-03-30T22:21:18.722Z,11.95
2023-03-30T22:26:24.485Z,11.94
2023-03-30T22:31:29.879Z,11.96
2023-03-30T22:36:35.672Z,11.96
2023-03-30T22:41:40.830Z,12.05
2023-03-30T22:46:46.099Z,12.09
2023-03-30T22:51:55.329Z,12.15
2023-03-30T22:57:03.220Z,12.21
2023-03-30T23:02:08.112Z,12.27
2023-03-30T23:07:13.259Z,12.29
2023-03-30T23:12:20.060Z,12.36
2023-03-30T23:17:25.846Z,12.46
2023-03-30T23:22:31.012Z,12.54
2023-03-30T23:27:38.723Z,12.67
2023-03-30T23:32:44.050Z,12.80
2023-03-30T23:37:51.381Z,12.99
2023-03-30T23:42:56.705Z,13.15
2023-03-30T23:48:02.571Z,13.31
2023-03-30T23:53:09.356Z,13.48
2023-03-30T23:58:15.710Z,13.67
